Edina, MN (55435)

07:22 CST le 06 février 2016 (GMT -0600)
Cornelia | | Change Station
CLOSE
Current Station
Stations météorologiques personnelles
Location: Edina, MN
Altitude: 860 ft
Stations météo à proximité

Alt. 860 ft 44.87 °N, 93.34 °W | Updated 13 seconds ago

Couvert
Couvert
26.6 ° F
Paraît 27 ° F
N
0.9
Vent Variable Vent de Sud
Gusts 2.5 mph

Aujourd'hui
Haut(e) -- | Bas -- ° F
--% Risque de précip.
Hier
Haut(e) -- | Bas -- ° F
Precip. -- pouce
Pression 30.12 pouce
Visibilité 8.0 Miles terrestres
Nuages Couvert 900 ft
Refroidissement éolien 27 ° F
Point de rosée 20 ° F
Humidité 77%
Précipitations 0.00 pouce
Profondeur de la couche neigeuse Non disponible.
7:27 AM 5:28 PM
Lune descendante, 5% visible
SPECI KMSP 061311Z 19006KT 8SM OVC009 M03/M06 A3012 RMK AO2 T10331056
Pression 30.12 pouce
Visibilité 8.0 Miles terrestres
Nuages Couvert 900 ft
Refroidissement éolien 27 ° F
Point de rosée 20 ° F
Humidité 77%
Précipitations 0.00 pouce
Profondeur de la couche neigeuse Non disponible.
7:27 AM 5:28 PM
Lune descendante, 5% visible
SPECI KMSP 061311Z 19006KT 8SM OVC009 M03/M06 A3012 RMK AO2 T10331056

10-Day Weather Forecast

Almanac

Astronomie

Feb. 06, 2016 Lever Coucher
Temps réel
Crépuscule civil
Crépuscule nautique
Crépuscule astronomique
Lune
Durée de lumière visible
Longueur du jour
Tomorrow will be .
, % of the Moon is Illuminated

Extrêmes aujourd'hui

State Highs State Lows

Community

WunderPhotos

Upload Photos

1,890,965 Photos téléchargées !

WunderBlog® & News

Nearby

Qualité de l'air

  Qualité de l'air Indice de la qualité de l'air Polluant
Not available.

Épaisseur de neige

Station Depth Altitude

Activité sismique

Ville Distance Mag. Time & Date
Minimum magnitude displayed is 2.5.

Températures des eaux côtières

Lieu Température

Stations

Stations météo à proximité

Emplacement de la station Température Refroidissement éolien Point de rosée Humidité Vent Precip. Alt. Mise à jour Type
                   

Watches & Warnings

There are currently no watches in effect.